| Date | Time | Temp. (oF) | Dew Point (oF) | Rel. Hum. (%) | Press. (in.) | Wind Dir. (deg.) | Wind Speed (mph) | Hourly Rainfall (i n.) |
|
|---|---|---|---|---|---|---|---|---|---|
| 1 | 07/18 | 24:00 | 77 | 63 | 64 | 30.28 | 290 | 0 | 0.00 |
| 2 | 07/17 | 23:00 | 79 | 63 | 59 | 30.24 | 290 | 0 | 0.00 |
| 3 | 07/17 | 22:00 | 81 | 63 | 56 | 30.24 | 290 | 0 | 0.00 |
| 4 | 07/17 | 21:00 | 83 | 63 | 52 | 30.23 | 150 | 1 | 0.00 |
| 5 | 07/17 | 20:00 | 86 | 63 | 48 | 30.22 | 150 | 1 | 0.00 |
| 6 | 07/17 | 19:00 | 90 | 64 | 43 | 30.23 | 170 | 4 | 0.00 |
| 7 | 07/17 | 18:00 | 92 | 62 | 38 | 30.23 | 140 | 4 | 0.00 |
| 8 | 07/17 | 17:00 | 93 | 65 | 41 | 30.24 | 130 | 9 | 0.00 |
| 9 | 07/17 | 16:00 | 94 | 64 | 38 | 30.24 | 130 | 2 | 0.00 |
| 10 | 07/17 | 15:00 | 96 | 65 | 38 | 30.25 | 150 | 4 | 0.00 |
| 11 | 07/17 | 14:00 | 96 | 65 | 38 | 30.26 | 130 | 4 | 0.00 |
| 12 | 07/17 | 13:00 | 95 | 69 | 44 | 30.27 | 150 | 2 | 0.00 |
| 13 | 07/17 | 12:00 | 93 | 70 | 49 | 30.31 | 130 | 1 | 0.00 |
| 14 | 07/17 | 11:00 | 88 | 71 | 59 | 30.37 | 110 | 1 | 0.00 |
| 15 | 07/17 | 10:00 | 79 | 68 | 70 | 30.36 | 310 | 1 | 0.00 |
| 16 | 07/17 | 09:00 | 75 | 67 | 77 | 30.36 | 150 | 2 | 0.00 |
| 17 | 07/17 | 08:00 | 71 | 65 | 83 | 30.35 | 150 | 2 | 0.00 |
| 18 | 07/17 | 07:00 | 69 | 63 | 82 | 30.35 | 150 | 0 | 0.00 |
| 19 | 07/17 | 06:00 | 69 | 62 | 79 | 30.32 | 150 | 0 | 0.00 |
| 20 | 07/17 | 05:00 | 69 | 60 | 75 | 30.28 | 150 | 0 | 0.00 |
| 21 | 07/17 | 04:00 | 70 | 60 | 71 | 30.25 | 150 | 0 | 0.00 |
| 22 | 07/17 | 03:00 | 72 | 59 | 66 | 30.25 | 150 | 0 | 0.00 |
| 23 | 07/17 | 02:00 | 73 | 59 | 63 | 30.26 | 150 | 0 | 0.00 |
| 24 | 07/17 | 01:00 | 75 | 59 | 58 | 30.32 | 150 | 0 | 0.00 |